CYRJ

Roberval Airport

Code ICAO CYRJ
Code IATA YRJ
Nom Roberval Airport
Emplacement Roberval, Quebec, CA
Élévation 586 pieds / 178.6 mètres
Latitude 48.52000000
Longitude -72.26583333
METAR CYRJ 211000Z 21009KT 40SM FEW050 BKN084 BKN220 18/12 A2960 RMK CU1AC5CI1 SLP026 DENSITY ALT 1500FT
Informations extras Afficher cartes et CFS
Afficher NOTAMS
Piste Longueur Largeur Surface Élévation
16 5000 ft 150 ft ASP 586 ft
34 5000 ft 150 ft ASP 560 ft